createdAt,value
2023-06-07T00:00:31.781Z,1.80
2023-06-07T00:03:36.118Z,1.95
2023-06-07T00:06:42.734Z,1.75
2023-06-07T00:09:46.389Z,1.98
2023-06-07T00:12:49.657Z,1.95
2023-06-07T00:15:53.160Z,1.60
2023-06-07T00:18:57.157Z,2.00
2023-06-07T00:22:03.208Z,1.80
2023-06-07T00:25:08.224Z,2.00
2023-06-07T00:28:11.488Z,1.70
2023-06-07T00:31:14.833Z,2.03
2023-06-07T00:34:18.149Z,2.10
2023-06-07T00:37:21.624Z,1.90
2023-06-07T00:40:25.058Z,2.20
2023-06-07T00:43:29.511Z,1.90
2023-06-07T00:46:33.491Z,1.90
2023-06-07T00:49:36.803Z,2.22
2023-06-07T00:52:41.455Z,2.33
2023-06-07T00:55:44.834Z,2.00
2023-06-07T00:58:48.764Z,2.13
2023-06-07T01:01:57.001Z,1.93
2023-06-07T01:05:04.878Z,2.50
2023-06-07T01:08:09.052Z,2.40
2023-06-07T01:11:17.031Z,2.60
2023-06-07T01:14:22.030Z,2.63
2023-06-07T01:17:26.234Z,2.30
2023-06-07T01:20:31.148Z,2.50
2023-06-07T01:23:36.124Z,2.20
2023-06-07T01:26:39.773Z,2.42
2023-06-07T01:29:44.356Z,2.53
2023-06-07T01:32:48.887Z,2.57
2023-06-07T01:35:54.249Z,2.67
2023-06-07T01:39:00.491Z,2.60
2023-06-07T01:42:04.971Z,2.40
2023-06-07T01:45:09.746Z,2.78
2023-06-07T01:48:13.091Z,2.63
2023-06-07T01:51:18.450Z,2.78
2023-06-07T01:54:21.965Z,2.63
2023-06-07T01:57:28.919Z,2.80
2023-06-07T02:01:06.449Z,2.78
2023-06-07T02:04:15.161Z,3.23
2023-06-07T02:07:24.846Z,3.35
2023-06-07T02:10:29.300Z,3.22
2023-06-07T02:13:37.972Z,2.90
2023-06-07T02:16:41.845Z,3.30
2023-06-07T02:19:46.466Z,3.43
2023-06-07T02:22:49.802Z,3.05
2023-06-07T02:25:53.131Z,3.28
2023-06-07T02:28:56.499Z,2.97
2023-06-07T02:32:02.004Z,3.10
2023-06-07T02:35:08.898Z,3.03
2023-06-07T02:38:12.907Z,3.30
2023-06-07T02:41:16.838Z,3.10
2023-06-07T02:44:20.120Z,3.30
2023-06-07T02:47:23.469Z,3.33
2023-06-07T02:50:27.716Z,3.57
2023-06-07T02:53:33.089Z,3.58
2023-06-07T02:56:36.349Z,3.42
2023-06-07T02:59:40.423Z,3.67
2023-06-07T03:02:44.197Z,3.53
2023-06-07T03:05:49.315Z,3.50
2023-06-07T03:08:53.435Z,3.20
2023-06-07T03:12:00.396Z,3.42
2023-06-07T03:15:10.224Z,3.55
2023-06-07T03:18:17.047Z,3.58
2023-06-07T03:21:26.799Z,3.30
2023-06-07T03:24:32.207Z,3.45
2023-06-07T03:27:36.268Z,3.83
2023-06-07T03:30:49.499Z,3.83
2023-06-07T03:34:00.177Z,3.58
2023-06-07T03:37:03.699Z,3.90
2023-06-07T03:40:09.794Z,3.72
2023-06-07T03:43:13.198Z,3.50
2023-06-07T03:46:17.348Z,3.67
2023-06-07T03:49:21.477Z,3.25
2023-06-07T03:52:24.991Z,3.30
2023-06-07T03:55:30.729Z,3.58
2023-06-07T03:58:34.404Z,3.22
2023-06-07T04:01:45.208Z,3.10
2023-06-07T04:04:48.584Z,3.58
2023-06-07T04:07:52.214Z,3.30
2023-06-07T04:10:55.590Z,3.65
2023-06-07T04:13:58.902Z,3.47
2023-06-07T04:17:05.428Z,3.58
2023-06-07T04:20:11.133Z,3.17
2023-06-07T04:23:15.303Z,3.13
2023-06-07T04:26:23.044Z,3.50
2023-06-07T04:29:27.119Z,4.90
2023-06-07T04:32:31.179Z,3.30
2023-06-07T04:35:34.831Z,3.40
2023-06-07T04:38:54.017Z,3.10
2023-06-07T04:42:04.538Z,3.63
2023-06-07T04:45:08.924Z,3.83
2023-06-07T04:48:12.928Z,3.45
2023-06-07T04:51:21.782Z,3.50
2023-06-07T04:54:29.448Z,3.40
2023-06-07T04:57:35.103Z,3.60
2023-06-07T05:00:40.284Z,3.35
2023-06-07T05:03:51.782Z,3.35
2023-06-07T05:07:00.193Z,3.17
2023-06-07T05:10:08.500Z,3.00
2023-06-07T05:13:12.114Z,3.60
2023-06-07T05:16:19.696Z,3.17
2023-06-07T05:19:23.833Z,3.58
2023-06-07T05:22:28.097Z,3.20
2023-06-07T05:25:32.466Z,3.90
2023-06-07T05:28:37.177Z,3.30
2023-06-07T05:31:41.567Z,3.65
2023-06-07T05:34:46.713Z,3.00
2023-06-07T05:37:51.329Z,3.88
2023-06-07T05:40:56.754Z,3.50
2023-06-07T05:44:00.137Z,2.72
2023-06-07T05:47:04.193Z,3.40
2023-06-07T05:50:08.397Z,3.40
2023-06-07T05:53:11.866Z,3.55
2023-06-07T05:56:18.234Z,3.70
2023-06-07T05:59:24.770Z,3.30
2023-06-07T06:02:30.267Z,4.47
2023-06-07T06:05:33.631Z,3.90
2023-06-07T06:08:36.886Z,3.50
2023-06-07T06:11:40.287Z,3.30
2023-06-07T06:14:43.578Z,3.72
2023-06-07T06:17:46.875Z,3.50
2023-06-07T06:20:50.039Z,3.85
2023-06-07T06:23:54.240Z,3.92
2023-06-07T06:26:57.848Z,3.80
2023-06-07T06:30:01.244Z,4.20
2023-06-07T06:33:05.110Z,3.70
2023-06-07T06:36:08.791Z,3.47
2023-06-07T06:39:12.167Z,4.40
2023-06-07T06:42:15.490Z,3.70
2023-06-07T06:45:37.373Z,3.38
2023-06-07T06:48:42.815Z,3.90
2023-06-07T06:51:47.099Z,4.00
2023-06-07T06:54:50.407Z,4.05
2023-06-07T06:57:53.729Z,4.27
2023-06-07T07:00:57.006Z,3.95
2023-06-07T07:04:01.018Z,4.25
2023-06-07T07:07:04.566Z,4.13
2023-06-07T07:10:09.136Z,3.90
2023-06-07T07:13:12.425Z,5.03
2023-06-07T07:16:20.573Z,4.25
2023-06-07T07:19:24.058Z,3.90
2023-06-07T07:22:28.997Z,4.25
2023-06-07T07:25:32.580Z,5.60
2023-06-07T07:28:36.135Z,3.70
2023-06-07T07:31:40.283Z,4.75
2023-06-07T07:34:43.773Z,4.50
2023-06-07T07:37:48.253Z,4.78
2023-06-07T07:40:51.751Z,5.07
2023-06-07T07:44:02.201Z,4.80
2023-06-07T07:47:09.317Z,4.68
2023-06-07T07:50:12.671Z,5.35
2023-06-07T07:53:16.313Z,3.63
2023-06-07T07:56:19.854Z,5.93
2023-06-07T07:59:24.248Z,4.57
2023-06-07T08:02:27.553Z,6.28
2023-06-07T08:05:31.056Z,5.65
2023-06-07T08:08:34.839Z,5.43
2023-06-07T08:11:39.089Z,7.05
2023-06-07T08:14:42.349Z,6.77
2023-06-07T08:17:45.672Z,7.00
2023-06-07T08:20:49.245Z,5.13
2023-06-07T08:23:56.298Z,6.28
2023-06-07T08:26:59.743Z,6.05
2023-06-07T08:30:04.770Z,6.33
2023-06-07T08:33:08.155Z,7.60
2023-06-07T08:36:11.592Z,4.75
2023-06-07T08:39:14.941Z,5.40
2023-06-07T08:42:18.365Z,8.93
2023-06-07T08:45:21.783Z,8.40
2023-06-07T08:48:26.721Z,8.10
2023-06-07T08:51:32.198Z,6.90
2023-06-07T08:54:37.785Z,10.57
2023-06-07T08:57:41.572Z,7.40
2023-06-07T09:00:45.212Z,9.40
2023-06-07T09:03:55.066Z,5.93
2023-06-07T09:06:58.543Z,8.95
2023-06-07T09:10:02.626Z,6.95
2023-06-07T09:13:07.026Z,3.92
2023-06-07T09:16:13.766Z,4.77
2023-06-07T09:19:40.596Z,9.48
2023-06-07T09:22:44.898Z,6.63
2023-06-07T09:25:55.664Z,9.77
2023-06-07T09:29:07.350Z,7.78
2023-06-07T09:32:27.062Z,10.20
2023-06-07T09:35:30.663Z,5.43
2023-06-07T09:38:34.623Z,8.02
2023-06-07T09:41:38.005Z,9.25
2023-06-07T09:44:41.403Z,9.20
2023-06-07T09:47:44.956Z,6.00
2023-06-07T09:50:58.228Z,7.20
2023-06-07T09:54:02.697Z,7.28
2023-06-07T09:57:10.741Z,8.75
2023-06-07T10:00:16.087Z,7.75
2023-06-07T10:03:19.978Z,6.50
2023-06-07T10:06:24.450Z,5.78
2023-06-07T10:09:29.650Z,4.22
2023-06-07T10:12:36.934Z,5.20
2023-06-07T10:15:44.192Z,4.55
2023-06-07T10:18:52.189Z,4.70
2023-06-07T10:21:58.980Z,5.88
2023-06-07T10:25:17.660Z,4.93
2023-06-07T10:28:38.051Z,5.85
2023-06-07T10:31:52.398Z,7.90
2023-06-07T10:34:57.603Z,7.40
2023-06-07T10:38:01.104Z,5.93
2023-06-07T10:41:06.658Z,5.18
2023-06-07T10:44:10.882Z,6.03
2023-06-07T10:47:23.297Z,4.82
2023-06-07T10:50:29.498Z,5.53
2023-06-07T10:53:56.862Z,5.72
2023-06-07T10:57:01.248Z,6.55
2023-06-07T11:00:32.604Z,5.45
2023-06-07T11:03:45.434Z,5.13
2023-06-07T11:07:32.079Z,8.57
2023-06-07T11:10:36.432Z,5.93
2023-06-07T11:13:45.820Z,6.93
2023-06-07T11:16:49.410Z,6.85
2023-06-07T11:19:56.428Z,6.95
2023-06-07T11:23:18.149Z,8.07
2023-06-07T11:26:21.790Z,7.07
2023-06-07T11:29:25.655Z,6.38
2023-06-07T11:32:38.993Z,6.63
2023-06-07T11:35:43.372Z,8.48
2023-06-07T11:39:00.632Z,7.43
2023-06-07T11:42:05.229Z,7.88
2023-06-07T11:45:11.315Z,7.50
2023-06-07T11:48:14.718Z,7.55
2023-06-07T11:51:20.894Z,7.43
2023-06-07T11:54:26.572Z,7.20
2023-06-07T11:57:33.722Z,8.25
2023-06-07T12:00:38.613Z,7.70
2023-06-07T12:03:45.846Z,7.97
2023-06-07T12:06:50.526Z,9.27
2023-06-07T12:09:53.908Z,8.10
2023-06-07T12:13:16.368Z,8.43
2023-06-07T12:16:23.934Z,7.40
2023-06-07T12:19:27.381Z,6.20
2023-06-07T12:22:30.688Z,6.90
2023-06-07T12:25:35.895Z,6.80
2023-06-07T12:28:44.271Z,6.70
2023-06-07T12:31:49.755Z,6.25
2023-06-07T12:34:53.061Z,6.55
2023-06-07T12:37:57.113Z,6.45
2023-06-07T12:41:00.642Z,5.80
2023-06-07T12:44:06.266Z,6.00
2023-06-07T12:47:10.307Z,5.43
2023-06-07T12:50:14.087Z,5.03
2023-06-07T12:53:17.423Z,4.85
2023-06-07T12:56:21.475Z,5.13
2023-06-07T12:59:24.791Z,5.15
2023-06-07T13:02:29.896Z,4.80
2023-06-07T13:05:33.625Z,5.35
2023-06-07T13:08:36.929Z,3.83
2023-06-07T13:11:42.270Z,4.33
2023-06-07T13:14:45.669Z,3.65
2023-06-07T13:17:48.997Z,4.30
2023-06-07T13:20:52.675Z,4.40
2023-06-07T13:23:56.061Z,3.90
2023-06-07T13:26:59.490Z,4.10
2023-06-07T13:30:04.172Z,3.45
2023-06-07T13:33:20.077Z,3.17
2023-06-07T13:36:24.186Z,3.83
2023-06-07T13:39:27.428Z,3.47
2023-06-07T13:42:30.659Z,2.70
2023-06-07T13:45:33.968Z,2.70
2023-06-07T13:48:41.192Z,3.40
2023-06-07T13:51:44.983Z,3.15
2023-06-07T13:54:49.474Z,2.85
2023-06-07T13:57:54.172Z,3.17
2023-06-07T14:01:04.036Z,3.63
2023-06-07T14:04:08.541Z,3.28
2023-06-07T14:07:11.995Z,3.45
2023-06-07T14:10:16.423Z,3.40
2023-06-07T14:13:22.536Z,3.10
2023-06-07T14:16:28.193Z,3.10
2023-06-07T14:19:31.991Z,3.50
2023-06-07T14:22:35.942Z,3.15
2023-06-07T14:25:39.309Z,3.33
2023-06-07T14:28:44.946Z,3.27
2023-06-07T14:31:48.470Z,2.90
2023-06-07T14:34:55.505Z,4.13
2023-06-07T14:37:58.894Z,3.60
2023-06-07T14:41:02.314Z,3.22
2023-06-07T14:44:08.001Z,3.43
2023-06-07T14:47:11.346Z,3.05
2023-06-07T14:50:14.632Z,3.00
2023-06-07T14:53:18.047Z,3.00
2023-06-07T14:56:21.830Z,2.72
2023-06-07T14:59:25.303Z,3.30
2023-06-07T15:02:28.848Z,3.38
2023-06-07T15:05:34.826Z,2.70
2023-06-07T15:08:38.639Z,2.58
2023-06-07T15:11:41.954Z,2.60
2023-06-07T15:14:45.314Z,2.53
2023-06-07T15:17:51.396Z,2.50
2023-06-07T15:20:55.479Z,4.03
2023-06-07T15:23:58.833Z,3.33
2023-06-07T15:27:02.215Z,2.80
2023-06-07T15:30:06.882Z,2.80
2023-06-07T15:33:10.544Z,3.47
2023-06-07T15:36:13.855Z,3.13
2023-06-07T15:39:17.198Z,3.00
2023-06-07T15:42:20.506Z,3.00
2023-06-07T15:45:24.132Z,3.13
2023-06-07T15:48:28.655Z,3.38
2023-06-07T15:51:31.920Z,4.28
2023-06-07T15:54:35.338Z,3.03
2023-06-07T15:57:38.635Z,3.17
2023-06-07T16:00:42.159Z,2.90
2023-06-07T16:03:55.980Z,3.20
2023-06-07T16:07:00.434Z,3.33
2023-06-07T16:10:04.851Z,3.25
2023-06-07T16:13:09.843Z,3.25
2023-06-07T16:16:13.890Z,3.33
2023-06-07T16:19:17.229Z,3.30
2023-06-07T16:22:21.606Z,3.10
2023-06-07T16:25:25.457Z,3.55
2023-06-07T16:28:28.768Z,3.35
2023-06-07T16:31:32.161Z,3.43
2023-06-07T16:34:35.629Z,3.63
2023-06-07T16:37:39.003Z,3.50
2023-06-07T16:40:42.315Z,4.13
2023-06-07T16:43:45.640Z,3.30
2023-06-07T16:46:49.090Z,3.83
2023-06-07T16:49:52.622Z,3.80
2023-06-07T16:52:56.041Z,4.00
2023-06-07T16:55:59.425Z,3.58
2023-06-07T16:59:03.072Z,2.90
2023-06-07T17:02:07.322Z,3.63
2023-06-07T17:05:10.791Z,3.42
2023-06-07T17:08:17.081Z,3.65
2023-06-07T17:11:21.032Z,3.63
2023-06-07T17:14:24.373Z,3.33
2023-06-07T17:17:27.804Z,3.80
2023-06-07T17:20:32.624Z,3.60
2023-06-07T17:23:35.984Z,3.30
2023-06-07T17:26:39.377Z,3.40
2023-06-07T17:29:42.742Z,3.67
2023-06-07T17:32:46.193Z,3.60
2023-06-07T17:35:49.548Z,3.75
2023-06-07T17:38:52.877Z,3.65
2023-06-07T17:41:56.276Z,3.75
2023-06-07T17:44:59.640Z,3.40
2023-06-07T17:48:03.387Z,4.00
2023-06-07T17:51:07.403Z,3.60
2023-06-07T17:54:10.752Z,4.15
2023-06-07T17:57:14.648Z,4.18
2023-06-07T18:00:18.212Z,4.18
2023-06-07T18:03:21.625Z,4.30
2023-06-07T18:06:26.173Z,4.68
2023-06-07T18:09:29.555Z,4.50
2023-06-07T18:12:32.850Z,4.30
2023-06-07T18:15:36.178Z,4.60
2023-06-07T18:18:39.380Z,4.10
2023-06-07T18:21:42.751Z,4.30
2023-06-07T18:24:46.049Z,4.70
2023-06-07T18:27:49.424Z,5.03
2023-06-07T18:30:52.796Z,4.80
2023-06-07T18:33:56.149Z,4.63
2023-06-07T18:36:59.563Z,4.70
2023-06-07T18:40:05.899Z,5.53
2023-06-07T18:43:11.818Z,5.43
2023-06-07T18:46:17.695Z,5.85
2023-06-07T18:49:22.477Z,5.87
2023-06-07T18:52:25.864Z,6.00
2023-06-07T18:55:29.115Z,6.57
2023-06-07T18:58:33.219Z,5.88
2023-06-07T19:01:50.967Z,6.20
2023-06-07T19:04:55.595Z,5.67
2023-06-07T19:08:00.034Z,6.43
2023-06-07T19:11:04.139Z,6.25
2023-06-07T19:14:08.172Z,6.10
2023-06-07T19:17:12.027Z,6.20
2023-06-07T19:20:16.542Z,6.60
2023-06-07T19:23:20.384Z,6.32
2023-06-07T19:26:23.817Z,6.57
2023-06-07T19:29:27.164Z,6.03
2023-06-07T19:32:30.640Z,6.30
2023-06-07T19:35:33.990Z,5.97
2023-06-07T19:38:37.250Z,5.85
2023-06-07T19:41:43.431Z,5.75
2023-06-07T19:44:47.128Z,6.03
2023-06-07T19:47:50.713Z,5.35
2023-06-07T19:50:53.987Z,4.67
2023-06-07T19:53:57.998Z,4.72
2023-06-07T19:57:01.335Z,4.82
2023-06-07T20:00:05.507Z,4.82
2023-06-07T20:03:15.730Z,4.90
2023-06-07T20:06:19.179Z,4.63
2023-06-07T20:09:22.836Z,5.10
2023-06-07T20:12:26.312Z,5.47
2023-06-07T20:15:29.592Z,4.82
2023-06-07T20:18:33.030Z,5.15
2023-06-07T20:21:37.166Z,5.37
2023-06-07T20:24:40.959Z,5.47
2023-06-07T20:27:44.238Z,5.20
2023-06-07T20:30:49.036Z,4.95
2023-06-07T20:33:52.387Z,4.97
2023-06-07T20:36:55.623Z,4.60
2023-06-07T20:39:59.393Z,3.10
2023-06-07T20:43:03.536Z,2.85
2023-06-07T20:46:07.080Z,4.32
2023-06-07T20:49:10.602Z,3.53
2023-06-07T20:52:13.923Z,3.83
2023-06-07T20:55:17.235Z,3.60
2023-06-07T20:58:23.362Z,2.72
2023-06-07T21:01:27.234Z,3.20
2023-06-07T21:04:30.970Z,3.03
2023-06-07T21:07:34.195Z,4.17
2023-06-07T21:10:37.346Z,3.75
2023-06-07T21:13:40.836Z,4.28
2023-06-07T21:16:47.633Z,3.15
2023-06-07T21:19:52.441Z,4.07
2023-06-07T21:22:56.769Z,3.07
2023-06-07T21:26:00.111Z,3.45
2023-06-07T21:29:03.986Z,3.75
2023-06-07T21:32:08.854Z,3.63
2023-06-07T21:35:12.391Z,3.03
2023-06-07T21:38:15.664Z,2.70
2023-06-07T21:41:18.855Z,3.25
2023-06-07T21:44:24.466Z,2.83
2023-06-07T21:47:28.109Z,2.92
2023-06-07T21:50:31.473Z,3.67
2023-06-07T21:53:34.710Z,3.23
2023-06-07T21:56:37.920Z,3.08
2023-06-07T21:59:42.033Z,3.40
2023-06-07T22:02:45.458Z,3.22
2023-06-07T22:05:48.865Z,3.25
2023-06-07T22:08:52.214Z,3.13
2023-06-07T22:11:55.691Z,3.33
2023-06-07T22:15:01.623Z,3.33
2023-06-07T22:18:05.160Z,3.53
2023-06-07T22:21:08.854Z,3.22
2023-06-07T22:24:12.172Z,3.50
2023-06-07T22:27:18.329Z,3.35
2023-06-07T22:30:22.488Z,3.28
2023-06-07T22:33:28.249Z,3.55
2023-06-07T22:36:41.710Z,3.38
2023-06-07T22:39:45.155Z,3.30
2023-06-07T22:42:48.338Z,3.25
2023-06-07T22:45:51.528Z,3.42
2023-06-07T22:48:58.659Z,3.78
2023-06-07T22:52:06.113Z,3.50
2023-06-07T22:55:14.186Z,2.50
2023-06-07T22:58:17.467Z,2.85
2023-06-07T23:01:21.154Z,3.35
2023-06-07T23:04:24.549Z,3.60
2023-06-07T23:07:31.016Z,3.42
2023-06-07T23:10:37.171Z,3.30
2023-06-07T23:13:42.170Z,3.50
2023-06-07T23:16:46.389Z,3.42
2023-06-07T23:19:51.323Z,3.38
2023-06-07T23:22:57.185Z,3.28
2023-06-07T23:26:00.430Z,3.23
2023-06-07T23:29:03.669Z,3.40
2023-06-07T23:32:07.322Z,3.40
2023-06-07T23:35:10.725Z,3.63
2023-06-07T23:38:13.939Z,3.97
2023-06-07T23:41:17.213Z,3.30
2023-06-07T23:44:27.533Z,3.70
2023-06-07T23:47:31.128Z,3.63
2023-06-07T23:50:34.374Z,3.63
2023-06-07T23:53:37.754Z,3.30
2023-06-07T23:56:41.083Z,3.70
2023-06-07T23:59:44.364Z,3.50
